Tega Cay, South Carolina
Current Conditions -  °F | °C
As of 7:54 PM on Tuesday 27 Jan 2015 (Local Time) from KUZA Reporting Station
Clear Clear  
Wind Chill: 31°   Ceiling: Unl
Heat Index: 38°   Visibility: 10mi
Dew Point: 22°   Wind: 9mph
Humidity: 53%   Direction: 340°NNW
Pressure: 29.97"   Gusts: NA
Location:  35.0493°N, 80.9623°W
Report Text: KUZA 280054Z AUTO 34008KT 10SM CLR 03/M06 A2997 RMK AO2 SLP157 T00331056
Loading
Personal Weather Stations






























Interactive Weather Map New forecast layout! Learn more

10-Day Weather Forecast

Advertisements
Track Severe Weather on mobile